sensor_id;sensor_type;location;lat;lon;timestamp;temperature;humidity
11836;DHT22;5977;51.972;7.640;2024-03-23T00:52:20;13.80;94.40
11836;DHT22;5977;51.972;7.640;2024-03-23T00:54:47;13.80;93.20
11836;DHT22;5977;51.972;7.640;2024-03-23T00:57:13;13.80;92.30
11836;DHT22;5977;51.972;7.640;2024-03-23T00:59:40;13.80;92.90
11836;DHT22;5977;51.972;7.640;2024-03-23T01:02:06;13.60;91.60
11836;DHT22;5977;51.972;7.640;2024-03-23T01:04:33;13.80;92.80
11836;DHT22;5977;51.972;7.640;2024-03-23T01:06:59;13.60;92.40
11836;DHT22;5977;51.972;7.640;2024-03-23T01:09:27;13.60;92.30
11836;DHT22;5977;51.972;7.640;2024-03-23T01:11:53;13.60;92.00
11836;DHT22;5977;51.972;7.640;2024-03-23T01:14:20;13.50;92.50
11836;DHT22;5977;51.972;7.640;2024-03-23T01:16:46;13.40;92.00
11836;DHT22;5977;51.972;7.640;2024-03-23T01:19:13;13.30;92.60
11836;DHT22;5977;51.972;7.640;2024-03-23T01:21:39;13.50;92.30
11836;DHT22;5977;51.972;7.640;2024-03-23T01:24:06;13.50;92.60
11836;DHT22;5977;51.972;7.640;2024-03-23T01:26:33;13.50;91.90
11836;DHT22;5977;51.972;7.640;2024-03-23T01:29:00;13.40;92.90
11836;DHT22;5977;51.972;7.640;2024-03-23T01:31:26;13.40;91.60
11836;DHT22;5977;51.972;7.640;2024-03-23T01:33:53;13.50;92.40
11836;DHT22;5977;51.972;7.640;2024-03-23T01:36:19;13.30;92.00
11836;DHT22;5977;51.972;7.640;2024-03-23T01:38:46;13.20;92.00
11836;DHT22;5977;51.972;7.640;2024-03-23T01:41:12;13.20;92.60
11836;DHT22;5977;51.972;7.640;2024-03-23T01:43:40;13.30;92.10
11836;DHT22;5977;51.972;7.640;2024-03-23T01:46:07;13.30;92.20
11836;DHT22;5977;51.972;7.640;2024-03-23T01:48:34;13.20;92.10
11836;DHT22;5977;51.972;7.640;2024-03-23T01:51:00;13.30;92.60
11836;DHT22;5977;51.972;7.640;2024-03-23T01:53:27;13.10;92.80
11836;DHT22;5977;51.972;7.640;2024-03-23T01:55:54;13.20;92.60
11836;DHT22;5977;51.972;7.640;2024-03-23T01:58:22;13.20;93.00
11836;DHT22;5977;51.972;7.640;2024-03-23T02:00:50;13.20;92.90
11836;DHT22;5977;51.972;7.640;2024-03-23T02:03:23;13.20;92.90
11836;DHT22;5977;51.972;7.640;2024-03-23T02:05:50;13.20;92.30
11836;DHT22;5977;51.972;7.640;2024-03-23T02:08:17;13.20;92.80
11836;DHT22;5977;51.972;7.640;2024-03-23T02:10:44;13.10;94.40
11836;DHT22;5977;51.972;7.640;2024-03-23T02:13:11;13.10;93.90
11836;DHT22;5977;51.972;7.640;2024-03-23T02:15:38;13.00;93.60
11836;DHT22;5977;51.972;7.640;2024-03-23T02:18:07;13.30;94.30
11836;DHT22;5977;51.972;7.640;2024-03-23T02:20:33;13.20;93.50
11836;DHT22;5977;51.972;7.640;2024-03-23T02:23:01;13.10;93.70
11836;DHT22;5977;51.972;7.640;2024-03-23T02:25:27;13.00;93.80
11836;DHT22;5977;51.972;7.640;2024-03-23T02:27:55;13.10;95.90
11836;DHT22;5977;51.972;7.640;2024-03-23T02:30:21;13.10;93.70
11836;DHT22;5977;51.972;7.640;2024-03-23T02:32:48;13.10;94.90
11836;DHT22;5977;51.972;7.640;2024-03-23T02:35:15;13.30;94.10
11836;DHT22;5977;51.972;7.640;2024-03-23T02:37:41;13.10;95.60
11836;DHT22;5977;51.972;7.640;2024-03-23T02:40:09;13.10;94.00
11836;DHT22;5977;51.972;7.640;2024-03-23T02:42:36;13.20;94.30
11836;DHT22;5977;51.972;7.640;2024-03-23T02:45:02;13.20;94.20
11836;DHT22;5977;51.972;7.640;2024-03-23T02:47:30;13.10;94.00
11836;DHT22;5977;51.972;7.640;2024-03-23T02:49:56;13.10;95.20
11836;DHT22;5977;51.972;7.640;2024-03-23T02:52:23;13.00;94.80
11836;DHT22;5977;51.972;7.640;2024-03-23T02:54:49;13.00;94.00
11836;DHT22;5977;51.972;7.640;2024-03-23T02:57:18;13.00;94.60
11836;DHT22;5977;51.972;7.640;2024-03-23T02:59:44;13.10;94.70
11836;DHT22;5977;51.972;7.640;2024-03-23T03:02:13;13.10;94.40
11836;DHT22;5977;51.972;7.640;2024-03-23T03:04:39;13.10;95.10
11836;DHT22;5977;51.972;7.640;2024-03-23T03:07:06;13.20;95.80
11836;DHT22;5977;51.972;7.640;2024-03-23T03:09:32;13.00;94.50
11836;DHT22;5977;51.972;7.640;2024-03-23T03:12:01;13.00;93.90
11836;DHT22;5977;51.972;7.640;2024-03-23T03:14:28;13.10;93.70
11836;DHT22;5977;51.972;7.640;2024-03-23T03:16:55;13.10;95.50
11836;DHT22;5977;51.972;7.640;2024-03-23T03:19:22;13.20;94.30
11836;DHT22;5977;51.972;7.640;2024-03-23T03:21:49;13.20;94.80
11836;DHT22;5977;51.972;7.640;2024-03-23T03:24:15;13.20;94.50
11836;DHT22;5977;51.972;7.640;2024-03-23T03:26:42;13.10;93.70
11836;DHT22;5977;51.972;7.640;2024-03-23T03:29:08;13.10;93.30
11836;DHT22;5977;51.972;7.640;2024-03-23T03:31:37;13.10;94.20
11836;DHT22;5977;51.972;7.640;2024-03-23T03:34:03;13.20;94.70
11836;DHT22;5977;51.972;7.640;2024-03-23T03:36:30;13.20;94.50
11836;DHT22;5977;51.972;7.640;2024-03-23T03:38:56;13.20;93.40
11836;DHT22;5977;51.972;7.640;2024-03-23T03:41:23;13.10;93.70
11836;DHT22;5977;51.972;7.640;2024-03-23T03:43:49;13.20;93.60
11836;DHT22;5977;51.972;7.640;2024-03-23T03:46:16;13.10;93.60
11836;DHT22;5977;51.972;7.640;2024-03-23T03:48:43;13.10;93.00
11836;DHT22;5977;51.972;7.640;2024-03-23T03:51:10;13.10;93.30
11836;DHT22;5977;51.972;7.640;2024-03-23T03:53:36;13.30;94.90
11836;DHT22;5977;51.972;7.640;2024-03-23T03:56:04;13.10;94.00
11836;DHT22;5977;51.972;7.640;2024-03-23T03:58:30;13.20;93.40
11836;DHT22;5977;51.972;7.640;2024-03-23T04:00:56;13.10;93.30
11836;DHT22;5977;51.972;7.640;2024-03-23T04:03:22;13.10;93.80
11836;DHT22;5977;51.972;7.640;2024-03-23T04:05:52;13.00;93.60
11836;DHT22;5977;51.972;7.640;2024-03-23T04:08:18;13.00;93.60
11836;DHT22;5977;51.972;7.640;2024-03-23T04:10:45;13.00;94.30
11836;DHT22;5977;51.972;7.640;2024-03-23T04:13:11;13.00;94.20
11836;DHT22;5977;51.972;7.640;2024-03-23T04:15:38;13.00;95.20
11836;DHT22;5977;51.972;7.640;2024-03-23T04:18:04;12.90;93.90
11836;DHT22;5977;51.972;7.640;2024-03-23T04:20:32;12.90;94.80
11836;DHT22;5977;51.972;7.640;2024-03-23T04:22:59;13.00;96.00
11836;DHT22;5977;51.972;7.640;2024-03-23T04:25:26;13.20;95.20
11836;DHT22;5977;51.972;7.640;2024-03-23T04:27:52;13.00;94.20
11836;DHT22;5977;51.972;7.640;2024-03-23T04:30:19;12.80;94.80
11836;DHT22;5977;51.972;7.640;2024-03-23T04:32:46;12.90;94.40
11836;DHT22;5977;51.972;7.640;2024-03-23T04:35:13;13.00;95.00
11836;DHT22;5977;51.972;7.640;2024-03-23T04:37:39;13.00;94.10
11836;DHT22;5977;51.972;7.640;2024-03-23T04:40:09;12.90;94.30
11836;DHT22;5977;51.972;7.640;2024-03-23T04:42:37;12.90;95.60
11836;DHT22;5977;51.972;7.640;2024-03-23T04:45:05;12.90;99.90
11836;DHT22;5977;51.972;7.640;2024-03-23T04:47:32;12.70;95.10
11836;DHT22;5977;51.972;7.640;2024-03-23T04:49:59;12.80;96.80
11836;DHT22;5977;51.972;7.640;2024-03-23T04:52:27;12.90;95.90
11836;DHT22;5977;51.972;7.640;2024-03-23T04:57:22;12.90;96.30
11836;DHT22;5977;51.972;7.640;2024-03-23T04:59:49;12.70;95.30
11836;DHT22;5977;51.972;7.640;2024-03-23T05:02:15;12.60;97.40
11836;DHT22;5977;51.972;7.640;2024-03-23T05:04:42;12.80;97.90
11836;DHT22;5977;51.972;7.640;2024-03-23T05:07:08;12.80;95.40
11836;DHT22;5977;51.972;7.640;2024-03-23T05:09:36;12.90;97.40
11836;DHT22;5977;51.972;7.640;2024-03-23T05:12:02;12.80;96.00
11836;DHT22;5977;51.972;7.640;2024-03-23T05:14:31;12.60;96.80
11836;DHT22;5977;51.972;7.640;2024-03-23T05:16:57;12.60;96.00
11836;DHT22;5977;51.972;7.640;2024-03-23T05:19:24;12.70;97.50
11836;DHT22;5977;51.972;7.640;2024-03-23T05:21:50;12.70;95.40
11836;DHT22;5977;51.972;7.640;2024-03-23T05:24:17;12.60;96.10
11836;DHT22;5977;51.972;7.640;2024-03-23T05:26:43;12.60;95.40
11836;DHT22;5977;51.972;7.640;2024-03-23T05:29:10;12.50;95.20
11836;DHT22;5977;51.972;7.640;2024-03-23T05:31:40;12.70;96.50
11836;DHT22;5977;51.972;7.640;2024-03-23T05:34:08;12.60;96.20
11836;DHT22;5977;51.972;7.640;2024-03-23T05:36:34;12.70;96.30
11836;DHT22;5977;51.972;7.640;2024-03-23T05:39:02;12.90;96.00
11836;DHT22;5977;51.972;7.640;2024-03-23T05:41:28;12.90;94.30
11836;DHT22;5977;51.972;7.640;2024-03-23T05:43:55;12.60;95.30
11836;DHT22;5977;51.972;7.640;2024-03-23T05:46:21;12.90;95.10
11836;DHT22;5977;51.972;7.640;2024-03-23T05:48:50;12.80;93.70
11836;DHT22;5977;51.972;7.640;2024-03-23T05:51:25;12.60;94.40
11836;DHT22;5977;51.972;7.640;2024-03-23T05:53:52;12.80;94.10
11836;DHT22;5977;51.972;7.640;2024-03-23T05:56:20;12.80;95.10
11836;DHT22;5977;51.972;7.640;2024-03-23T05:58:46;12.80;94.30
11836;DHT22;5977;51.972;7.640;2024-03-23T06:01:14;12.80;93.70
11836;DHT22;5977;51.972;7.640;2024-03-23T06:03:41;12.80;92.90
11836;DHT22;5977;51.972;7.640;2024-03-23T06:06:08;12.80;94.00
11836;DHT22;5977;51.972;7.640;2024-03-23T06:08:37;12.70;94.90
11836;DHT22;5977;51.972;7.640;2024-03-23T06:11:04;12.90;93.60
11836;DHT22;5977;51.972;7.640;2024-03-23T06:13:31;12.80;93.00
11836;DHT22;5977;51.972;7.640;2024-03-23T06:15:58;12.60;93.80
11836;DHT22;5977;51.972;7.640;2024-03-23T06:18:25;12.60;93.50
11836;DHT22;5977;51.972;7.640;2024-03-23T06:20:52;12.70;94.90
11836;DHT22;5977;51.972;7.640;2024-03-23T06:23:20;12.60;93.60
11836;DHT22;5977;51.972;7.640;2024-03-23T06:25:46;12.60;94.10
11836;DHT22;5977;51.972;7.640;2024-03-23T06:28:13;13.00;93.80
11836;DHT22;5977;51.972;7.640;2024-03-23T06:30:39;13.10;93.20
11836;DHT22;5977;51.972;7.640;2024-03-23T06:33:06;13.30;92.40
11836;DHT22;5977;51.972;7.640;2024-03-23T06:35:32;13.20;92.20
11836;DHT22;5977;51.972;7.640;2024-03-23T06:37:59;13.30;92.00
11836;DHT22;5977;51.972;7.640;2024-03-23T06:40:26;13.30;93.00
11836;DHT22;5977;51.972;7.640;2024-03-23T06:42:53;13.40;91.80
11836;DHT22;5977;51.972;7.640;2024-03-23T06:45:19;13.20;91.70
11836;DHT22;5977;51.972;7.640;2024-03-23T06:47:49;13.00;91.90
11836;DHT22;5977;51.972;7.640;2024-03-23T06:50:16;13.10;92.70
11836;DHT22;5977;51.972;7.640;2024-03-23T06:52:43;13.20;92.00
11836;DHT22;5977;51.972;7.640;2024-03-23T06:55:09;13.20;91.90
11836;DHT22;5977;51.972;7.640;2024-03-23T06:57:38;13.70;90.80
11836;DHT22;5977;51.972;7.640;2024-03-23T07:00:04;13.90;90.20
11836;DHT22;5977;51.972;7.640;2024-03-23T07:02:35;14.10;91.60
11836;DHT22;5977;51.972;7.640;2024-03-23T07:05:01;14.70;90.60
11836;DHT22;5977;51.972;7.640;2024-03-23T07:07:29;14.90;87.90
11836;DHT22;5977;51.972;7.640;2024-03-23T07:09:55;14.90;86.20
11836;DHT22;5977;51.972;7.640;2024-03-23T07:12:22;15.20;89.00
11836;DHT22;5977;51.972;7.640;2024-03-23T07:14:50;15.80;89.10
11836;DHT22;5977;51.972;7.640;2024-03-23T07:17:17;16.20;86.30
11836;DHT22;5977;51.972;7.640;2024-03-23T07:19:44;16.50;84.90
11836;DHT22;5977;51.972;7.640;2024-03-23T07:22:11;16.90;83.40
11836;DHT22;5977;51.972;7.640;2024-03-23T07:24:37;17.20;81.80
11836;DHT22;5977;51.972;7.640;2024-03-23T07:27:05;17.20;79.70
11836;DHT22;5977;51.972;7.640;2024-03-23T07:29:31;17.30;80.50
11836;DHT22;5977;51.972;7.640;2024-03-23T07:31:59;17.40;81.40
11836;DHT22;5977;51.972;7.640;2024-03-23T07:34:25;17.60;79.10
11836;DHT22;5977;51.972;7.640;2024-03-23T07:36:52;17.80;78.60
11836;DHT22;5977;51.972;7.640;2024-03-23T07:39:19;18.20;76.30
11836;DHT22;5977;51.972;7.640;2024-03-23T07:41:45;18.10;75.90
11836;DHT22;5977;51.972;7.640;2024-03-23T07:44:12;18.20;75.10
11836;DHT22;5977;51.972;7.640;2024-03-23T07:46:39;18.50;75.70
11836;DHT22;5977;51.972;7.640;2024-03-23T07:49:06;18.60;73.70
11836;DHT22;5977;51.972;7.640;2024-03-23T07:51:33;18.70;71.50
11836;DHT22;5977;51.972;7.640;2024-03-23T07:54:00;19.00;71.40
11836;DHT22;5977;51.972;7.640;2024-03-23T07:56:27;19.00;70.50
11836;DHT22;5977;51.972;7.640;2024-03-23T07:58:53;19.40;68.30
11836;DHT22;5977;51.972;7.640;2024-03-23T08:01:20;19.50;67.60
11836;DHT22;5977;51.972;7.640;2024-03-23T08:03:46;19.50;67.80
11836;DHT22;5977;51.972;7.640;2024-03-23T08:06:16;19.80;68.80
11836;DHT22;5977;51.972;7.640;2024-03-23T08:08:46;19.70;67.20
11836;DHT22;5977;51.972;7.640;2024-03-23T08:11:13;20.00;80.90
11836;DHT22;5977;51.972;7.640;2024-03-23T08:13:41;19.60;84.40
11836;DHT22;5977;51.972;7.640;2024-03-23T08:16:08;19.00;82.30
11836;DHT22;5977;51.972;7.640;2024-03-23T08:18:34;18.50;82.00
11836;DHT22;5977;51.972;7.640;2024-03-23T08:21:03;18.50;81.50
11836;DHT22;5977;51.972;7.640;2024-03-23T08:23:32;18.30;82.60
11836;DHT22;5977;51.972;7.640;2024-03-23T08:26:02;18.60;84.90
11836;DHT22;5977;51.972;7.640;2024-03-23T08:28:29;18.90;85.70
11836;DHT22;5977;51.972;7.640;2024-03-23T08:30:56;18.60;82.70
11836;DHT22;5977;51.972;7.640;2024-03-23T08:33:23;18.60;81.90
11836;DHT22;5977;51.972;7.640;2024-03-23T08:35:54;19.00;84.00
11836;DHT22;5977;51.972;7.640;2024-03-23T08:38:20;18.40;81.10
11836;DHT22;5977;51.972;7.640;2024-03-23T08:40:56;18.70;80.50
11836;DHT22;5977;51.972;7.640;2024-03-23T08:43:23;19.40;84.20
11836;DHT22;5977;51.972;7.640;2024-03-23T08:45:50;19.00;83.20
11836;DHT22;5977;51.972;7.640;2024-03-23T08:48:16;19.50;82.80
11836;DHT22;5977;51.972;7.640;2024-03-23T08:50:43;19.00;80.00
11836;DHT22;5977;51.972;7.640;2024-03-23T08:53:09;18.50;82.00
11836;DHT22;5977;51.972;7.640;2024-03-23T08:55:36;18.70;84.00
11836;DHT22;5977;51.972;7.640;2024-03-23T08:58:04;18.50;84.10
11836;DHT22;5977;51.972;7.640;2024-03-23T09:00:34;18.50;86.40
11836;DHT22;5977;51.972;7.640;2024-03-23T09:03:00;18.70;81.40
11836;DHT22;5977;51.972;7.640;2024-03-23T09:05:27;18.30;81.10
11836;DHT22;5977;51.972;7.640;2024-03-23T09:07:56;18.40;83.40
11836;DHT22;5977;51.972;7.640;2024-03-23T09:10:23;18.50;82.10
11836;DHT22;5977;51.972;7.640;2024-03-23T09:12:50;18.60;81.00
11836;DHT22;5977;51.972;7.640;2024-03-23T09:15:19;18.80;83.10
11836;DHT22;5977;51.972;7.640;2024-03-23T09:17:45;18.70;81.80
11836;DHT22;5977;51.972;7.640;2024-03-23T09:20:12;18.50;81.60
11836;DHT22;5977;51.972;7.640;2024-03-23T09:22:38;18.30;83.10
11836;DHT22;5977;51.972;7.640;2024-03-23T09:25:05;18.10;83.10
11836;DHT22;5977;51.972;7.640;2024-03-23T09:27:32;18.40;84.80
11836;DHT22;5977;51.972;7.640;2024-03-23T09:29:58;18.70;81.50
11836;DHT22;5977;51.972;7.640;2024-03-23T09:32:27;18.80;84.90
11836;DHT22;5977;51.972;7.640;2024-03-23T09:34:53;19.00;83.50
11836;DHT22;5977;51.972;7.640;2024-03-23T09:37:20;19.20;86.20
11836;DHT22;5977;51.972;7.640;2024-03-23T09:39:46;17.90;65.90
11836;DHT22;5977;51.972;7.640;2024-03-23T09:42:13;17.10;66.10
11836;DHT22;5977;51.972;7.640;2024-03-23T09:44:40;16.80;68.40
11836;DHT22;5977;51.972;7.640;2024-03-23T09:47:08;16.50;73.30
11836;DHT22;5977;51.972;7.640;2024-03-23T09:49:35;16.70;71.70
11836;DHT22;5977;51.972;7.640;2024-03-23T09:52:03;16.70;73.60
11836;DHT22;5977;51.972;7.640;2024-03-23T09:54:29;16.50;72.10
11836;DHT22;5977;51.972;7.640;2024-03-23T09:56:56;16.60;69.10
11836;DHT22;5977;51.972;7.640;2024-03-23T09:59:22;16.70;70.70
11836;DHT22;5977;51.972;7.640;2024-03-23T10:01:49;17.50;73.30
11836;DHT22;5977;51.972;7.640;2024-03-23T10:04:38;17.40;73.20
11836;DHT22;5977;51.972;7.640;2024-03-23T10:07:11;18.30;81.80
11836;DHT22;5977;51.972;7.640;2024-03-23T10:09:37;18.70;79.50
11836;DHT22;5977;51.972;7.640;2024-03-23T10:12:09;18.80;81.60
11836;DHT22;5977;51.972;7.640;2024-03-23T10:14:35;18.00;73.30
11836;DHT22;5977;51.972;7.640;2024-03-23T10:17:14;17.80;72.40
11836;DHT22;5977;51.972;7.640;2024-03-23T10:19:42;17.70;72.40
11836;DHT22;5977;51.972;7.640;2024-03-23T10:22:10;17.60;70.70
11836;DHT22;5977;51.972;7.640;2024-03-23T10:24:36;17.40;70.50
11836;DHT22;5977;51.972;7.640;2024-03-23T10:27:03;17.20;71.60
11836;DHT22;5977;51.972;7.640;2024-03-23T10:29:29;16.80;72.20
11836;DHT22;5977;51.972;7.640;2024-03-23T10:32:08;16.70;74.10
11836;DHT22;5977;51.972;7.640;2024-03-23T10:34:35;16.90;72.00
11836;DHT22;5977;51.972;7.640;2024-03-23T10:37:04;17.10;72.50
11836;DHT22;5977;51.972;7.640;2024-03-23T10:39:34;17.00;71.90
11836;DHT22;5977;51.972;7.640;2024-03-23T10:42:06;17.20;72.40
11836;DHT22;5977;51.972;7.640;2024-03-23T10:44:34;17.30;71.50
11836;DHT22;5977;51.972;7.640;2024-03-23T10:47:02;17.40;73.50
11836;DHT22;5977;51.972;7.640;2024-03-23T10:49:29;17.30;74.20
11836;DHT22;5977;51.972;7.640;2024-03-23T10:52:00;17.10;70.70
11836;DHT22;5977;51.972;7.640;2024-03-23T10:54:28;17.00;73.20
11836;DHT22;5977;51.972;7.640;2024-03-23T10:56:59;17.10;71.70
11836;DHT22;5977;51.972;7.640;2024-03-23T10:59:27;17.30;72.10
11836;DHT22;5977;51.972;7.640;2024-03-23T11:01:56;17.00;70.70
11836;DHT22;5977;51.972;7.640;2024-03-23T11:04:36;17.30;72.30
11836;DHT22;5977;51.972;7.640;2024-03-23T11:07:29;17.10;69.40
11836;DHT22;5977;51.972;7.640;2024-03-23T11:09:56;17.00;68.60
11836;DHT22;5977;51.972;7.640;2024-03-23T11:12:27;17.10;73.20
11836;DHT22;5977;51.972;7.640;2024-03-23T11:14:55;17.70;77.30
11836;DHT22;5977;51.972;7.640;2024-03-23T11:17:23;18.00;74.20
11836;DHT22;5977;51.972;7.640;2024-03-23T11:19:56;18.30;74.20
11836;DHT22;5977;51.972;7.640;2024-03-23T11:22:41;18.60;78.50
11836;DHT22;5977;51.972;7.640;2024-03-23T11:25:16;18.50;74.60
11836;DHT22;5977;51.972;7.640;2024-03-23T11:27:44;17.90;73.40
11836;DHT22;5977;51.972;7.640;2024-03-23T11:30:16;17.90;75.50
11836;DHT22;5977;51.972;7.640;2024-03-23T11:32:44;17.90;78.20
11836;DHT22;5977;51.972;7.640;2024-03-23T11:35:10;17.80;75.90
11836;DHT22;5977;51.972;7.640;2024-03-23T11:37:38;17.70;78.30
11836;DHT22;5977;51.972;7.640;2024-03-23T11:40:21;17.50;78.00
11836;DHT22;5977;51.972;7.640;2024-03-23T11:42:55;17.20;76.50
11836;DHT22;5977;51.972;7.640;2024-03-23T11:45:22;17.30;79.90
11836;DHT22;5977;51.972;7.640;2024-03-23T11:47:49;17.40;79.70
11836;DHT22;5977;51.972;7.640;2024-03-23T11:50:27;17.50;80.20
11836;DHT22;5977;51.972;7.640;2024-03-23T11:53:12;17.50;80.00
11836;DHT22;5977;51.972;7.640;2024-03-23T11:55:42;17.30;79.60
11836;DHT22;5977;51.972;7.640;2024-03-23T11:58:09;17.20;78.80
11836;DHT22;5977;51.972;7.640;2024-03-23T12:00:35;17.60;82.10
11836;DHT22;5977;51.972;7.640;2024-03-23T12:03:03;17.40;80.00
11836;DHT22;5977;51.972;7.640;2024-03-23T12:05:30;17.40;80.90
11836;DHT22;5977;51.972;7.640;2024-03-23T12:08:15;17.60;78.30
11836;DHT22;5977;51.972;7.640;2024-03-23T12:10:47;17.60;81.40
11836;DHT22;5977;51.972;7.640;2024-03-23T12:13:19;18.00;80.60
11836;DHT22;5977;51.972;7.640;2024-03-23T12:15:46;17.80;77.10
11836;DHT22;5977;51.972;7.640;2024-03-23T12:18:14;17.50;79.50
11836;DHT22;5977;51.972;7.640;2024-03-23T12:20:40;18.10;82.80
11836;DHT22;5977;51.972;7.640;2024-03-23T12:23:09;18.20;77.20
11836;DHT22;5977;51.972;7.640;2024-03-23T12:25:39;17.80;78.20
11836;DHT22;5977;51.972;7.640;2024-03-23T12:28:08;18.00;80.60
11836;DHT22;5977;51.972;7.640;2024-03-23T12:30:35;18.10;80.70
11836;DHT22;5977;51.972;7.640;2024-03-23T12:33:02;18.00;80.80
11836;DHT22;5977;51.972;7.640;2024-03-23T12:35:29;18.40;82.20
11836;DHT22;5977;51.972;7.640;2024-03-23T12:37:56;18.40;81.70
11836;DHT22;5977;51.972;7.640;2024-03-23T12:40:22;18.30;78.90
11836;DHT22;5977;51.972;7.640;2024-03-23T12:42:49;18.80;81.40
11836;DHT22;5977;51.972;7.640;2024-03-23T12:45:16;18.20;78.00
11836;DHT22;5977;51.972;7.640;2024-03-23T12:47:43;17.80;80.20
11836;DHT22;5977;51.972;7.640;2024-03-23T12:50:09;17.80;84.20
11836;DHT22;5977;51.972;7.640;2024-03-23T12:52:37;17.90;83.60
11836;DHT22;5977;51.972;7.640;2024-03-23T12:55:03;18.10;84.20
11836;DHT22;5977;51.972;7.640;2024-03-23T12:57:31;18.80;86.60
11836;DHT22;5977;51.972;7.640;2024-03-23T12:59:57;18.40;82.90
11836;DHT22;5977;51.972;7.640;2024-03-23T13:02:26;18.40;85.20
11836;DHT22;5977;51.972;7.640;2024-03-23T13:04:53;17.90;81.70
11836;DHT22;5977;51.972;7.640;2024-03-23T13:07:21;18.50;87.90
11836;DHT22;5977;51.972;7.640;2024-03-23T13:09:49;18.40;83.70
11836;DHT22;5977;51.972;7.640;2024-03-23T13:12:17;18.20;81.40
11836;DHT22;5977;51.972;7.640;2024-03-23T13:14:44;18.40;83.80
11836;DHT22;5977;51.972;7.640;2024-03-23T13:17:18;17.50;78.70
11836;DHT22;5977;51.972;7.640;2024-03-23T13:19:46;17.20;84.20
11836;DHT22;5977;51.972;7.640;2024-03-23T13:22:12;17.20;80.70
11836;DHT22;5977;51.972;7.640;2024-03-23T13:24:38;17.30;81.80
11836;DHT22;5977;51.972;7.640;2024-03-23T13:27:06;16.90;82.00
11836;DHT22;5977;51.972;7.640;2024-03-23T13:29:34;17.00;87.00
11836;DHT22;5977;51.972;7.640;2024-03-23T13:32:01;17.10;80.80
11836;DHT22;5977;51.972;7.640;2024-03-23T13:34:27;16.40;85.10
11836;DHT22;5977;51.972;7.640;2024-03-23T13:36:56;15.70;92.80
11836;DHT22;5977;51.972;7.640;2024-03-23T13:41:53;16.00;83.60
11836;DHT22;5977;51.972;7.640;2024-03-23T13:44:19;15.90;86.00
11836;DHT22;5977;51.972;7.640;2024-03-23T13:46:46;15.70;87.20
11836;DHT22;5977;51.972;7.640;2024-03-23T13:49:24;15.70;84.90
11836;DHT22;5977;51.972;7.640;2024-03-23T13:51:52;15.90;81.40
11836;DHT22;5977;51.972;7.640;2024-03-23T13:54:20;15.50;82.10
11836;DHT22;5977;51.972;7.640;2024-03-23T13:56:48;16.10;91.00
11836;DHT22;5977;51.972;7.640;2024-03-23T13:59:14;16.50;87.60
11836;DHT22;5977;51.972;7.640;2024-03-23T14:01:41;16.00;83.40
11836;DHT22;5977;51.972;7.640;2024-03-23T14:09:01;15.00;91.50
11836;DHT22;5977;51.972;7.640;2024-03-23T14:11:30;15.50;90.50
11836;DHT22;5977;51.972;7.640;2024-03-23T14:13:56;15.30;87.60
11836;DHT22;5977;51.972;7.640;2024-03-23T14:16:23;15.10;89.30
11836;DHT22;5977;51.972;7.640;2024-03-23T14:18:49;15.40;88.20
11836;DHT22;5977;51.972;7.640;2024-03-23T14:21:17;15.30;88.10
11836;DHT22;5977;51.972;7.640;2024-03-23T14:23:43;15.50;87.20
11836;DHT22;5977;51.972;7.640;2024-03-23T14:26:10;15.40;88.80
11836;DHT22;5977;51.972;7.640;2024-03-23T14:28:49;15.50;86.30
11836;DHT22;5977;51.972;7.640;2024-03-23T14:31:17;15.40;88.90
11836;DHT22;5977;51.972;7.640;2024-03-23T14:33:43;15.30;89.40
11836;DHT22;5977;51.972;7.640;2024-03-23T14:36:12;15.40;90.50
11836;DHT22;5977;51.972;7.640;2024-03-23T14:38:38;15.60;87.90
11836;DHT22;5977;51.972;7.640;2024-03-23T14:41:05;15.50;86.60
11836;DHT22;5977;51.972;7.640;2024-03-23T14:43:32;16.00;89.00
11836;DHT22;5977;51.972;7.640;2024-03-23T14:46:23;15.90;79.80
11836;DHT22;5977;51.972;7.640;2024-03-23T14:48:49;16.10;84.80
11836;DHT22;5977;51.972;7.640;2024-03-23T14:51:16;16.30;81.60
11836;DHT22;5977;51.972;7.640;2024-03-23T14:53:45;16.10;84.20
11836;DHT22;5977;51.972;7.640;2024-03-23T14:56:13;16.20;83.50
11836;DHT22;5977;51.972;7.640;2024-03-23T14:58:41;16.60;87.20
11836;DHT22;5977;51.972;7.640;2024-03-23T15:01:09;16.00;80.20
11836;DHT22;5977;51.972;7.640;2024-03-23T15:03:37;16.20;86.70
11836;DHT22;5977;51.972;7.640;2024-03-23T15:06:05;15.90;81.40
11836;DHT22;5977;51.972;7.640;2024-03-23T15:08:32;15.60;81.50
11836;DHT22;5977;51.972;7.640;2024-03-23T15:10:59;15.20;77.90
11836;DHT22;5977;51.972;7.640;2024-03-23T15:13:25;15.70;86.10
11836;DHT22;5977;51.972;7.640;2024-03-23T15:15:52;15.50;80.30
11836;DHT22;5977;51.972;7.640;2024-03-23T15:18:18;15.50;78.30
11836;DHT22;5977;51.972;7.640;2024-03-23T15:20:56;15.00;79.20
11836;DHT22;5977;51.972;7.640;2024-03-23T15:23:22;15.10;78.70
11836;DHT22;5977;51.972;7.640;2024-03-23T15:25:54;15.50;75.00
11836;DHT22;5977;51.972;7.640;2024-03-23T15:28:20;16.00;81.10
11836;DHT22;5977;51.972;7.640;2024-03-23T15:30:47;15.60;79.10
11836;DHT22;5977;51.972;7.640;2024-03-23T15:33:13;15.20;89.30
11836;DHT22;5977;51.972;7.640;2024-03-23T15:35:40;14.70;87.50
11836;DHT22;5977;51.972;7.640;2024-03-23T15:40:35;14.50;93.50
11836;DHT22;5977;51.972;7.640;2024-03-23T15:43:01;14.50;90.30
11836;DHT22;5977;51.972;7.640;2024-03-23T15:45:28;14.40;91.50
11836;DHT22;5977;51.972;7.640;2024-03-23T15:50:22;15.20;94.80
11836;DHT22;5977;51.972;7.640;2024-03-23T15:52:48;14.40;91.20
11836;DHT22;5977;51.972;7.640;2024-03-23T15:55:17;14.60;92.40
11836;DHT22;5977;51.972;7.640;2024-03-23T15:57:43;14.60;92.70
11836;DHT22;5977;51.972;7.640;2024-03-23T16:00:11;14.50;93.50
11836;DHT22;5977;51.972;7.640;2024-03-23T16:02:38;14.50;93.60
11836;DHT22;5977;51.972;7.640;2024-03-23T16:05:06;14.20;92.00
11836;DHT22;5977;51.972;7.640;2024-03-23T16:07:36;14.10;91.30
11836;DHT22;5977;51.972;7.640;2024-03-23T16:10:05;14.30;87.60
11836;DHT22;5977;51.972;7.640;2024-03-23T16:12:36;14.20;84.40
11836;DHT22;5977;51.972;7.640;2024-03-23T16:15:04;14.10;82.30
11836;DHT22;5977;51.972;7.640;2024-03-23T16:17:31;14.10;85.50
11836;DHT22;5977;51.972;7.640;2024-03-23T16:20:02;14.40;83.00
11836;DHT22;5977;51.972;7.640;2024-03-23T16:22:28;14.00;83.50
11836;DHT22;5977;51.972;7.640;2024-03-23T16:24:55;14.10;82.70
11836;DHT22;5977;51.972;7.640;2024-03-23T16:27:21;14.20;80.90
11836;DHT22;5977;51.972;7.640;2024-03-23T16:29:50;14.30;82.60
11836;DHT22;5977;51.972;7.640;2024-03-23T16:32:16;14.20;79.90
11836;DHT22;5977;51.972;7.640;2024-03-23T16:34:43;14.30;82.00
11836;DHT22;5977;51.972;7.640;2024-03-23T16:37:09;14.10;80.00
11836;DHT22;5977;51.972;7.640;2024-03-23T16:39:36;14.30;82.30
11836;DHT22;5977;51.972;7.640;2024-03-23T16:42:03;14.50;81.60
11836;DHT22;5977;51.972;7.640;2024-03-23T16:44:30;14.40;79.90
11836;DHT22;5977;51.972;7.640;2024-03-23T16:46:58;14.40;81.10
11836;DHT22;5977;51.972;7.640;2024-03-23T16:49:25;14.40;78.70
11836;DHT22;5977;51.972;7.640;2024-03-23T16:51:51;14.40;82.90
11836;DHT22;5977;51.972;7.640;2024-03-23T16:54:18;14.60;80.70